KYKM/YKM METAR and TAF weather

Enter ICAO airport designator
Station Type Date Time Source
KYKM METAR 2019/12/09 06:05 UTC NOAA

KYKM 090605Z AUTO 24003KT 1/2SM R27/3000V4000FT FG VV003 01/01 A3021 RMK AO2 TWR VIS 1 T00110006


Station Type Date Time Source
KYKM Decoded METAR 2019/12/09 06:05 UTC NOAA

YAKIMA AIR TERMINAL, WA, United States (KYKM) 46-34N 120-32W 324M
Dec 09, 2019 - 01:05 AM EST / 2019.12.09 0605 UTC
Wind: from the WSW (240 degrees) at 3 MPH (3 KT) (direction variable):0
Visibility: 1/2 mile(s):0
Sky conditions: obscured
Weather: fog
Temperature: 34.0 F (1.1 C)
Dew Point: 33.1 F (0.6 C)
Relative Humidity: 96%
Pressure (altimeter): 30.21 in. Hg (1023 hPa)
ob: KYKM 090605Z AUTO 24003KT 1/2SM R27/3000V4000FT FG VV003 01/01 A3021 RMK AO2 TWR VIS 1 T00110006
cycle: 6

Station Type Date Time Source
KYKM TAF 2019/12/09 06:42 UTC NOAA

TAF KYKM 090540Z 0906/1006 VRB06KT 2SM BR OVC003
TEMPO 0906/0910 1/2SM FG OVC002
FM091000 VRB06KT 1/2SM FG OVC002

Example: see airport list